sensor_id;sensor_type;location;lat;lon;timestamp;P1;durP1;ratioP1;P2;durP2;ratioP2
64282;SDS011;50497;50.720;-2.084;2022-08-19T00:00:44;5.30;;;2.30;;
64282;SDS011;50497;50.720;-2.084;2022-08-19T00:03:10;6.10;;;2.10;;
64282;SDS011;50497;50.720;-2.084;2022-08-19T00:08:01;6.47;;;2.00;;
64282;SDS011;50497;50.720;-2.084;2022-08-19T00:10:27;6.90;;;2.20;;
64282;SDS011;50497;50.720;-2.084;2022-08-19T00:12:53;7.18;;;2.20;;
64282;SDS011;50497;50.720;-2.084;2022-08-19T00:17:46;7.30;;;1.88;;
64282;SDS011;50497;50.720;-2.084;2022-08-19T00:20:17;6.15;;;2.00;;
64282;SDS011;50497;50.720;-2.084;2022-08-19T00:22:45;6.78;;;2.00;;
64282;SDS011;50497;50.720;-2.084;2022-08-19T00:25:12;5.40;;;1.85;;
64282;SDS011;50497;50.720;-2.084;2022-08-19T00:27:38;5.40;;;1.90;;
64282;SDS011;50497;50.720;-2.084;2022-08-19T00:32:35;6.10;;;2.20;;
64282;SDS011;50497;50.720;-2.084;2022-08-19T00:35:02;7.38;;;2.30;;
64282;SDS011;50497;50.720;-2.084;2022-08-19T00:37:28;5.50;;;1.90;;
64282;SDS011;50497;50.720;-2.084;2022-08-19T00:39:54;7.60;;;2.05;;
64282;SDS011;50497;50.720;-2.084;2022-08-19T00:42:21;5.32;;;2.05;;
64282;SDS011;50497;50.720;-2.084;2022-08-19T00:44:51;6.47;;;2.20;;
64282;SDS011;50497;50.720;-2.084;2022-08-19T00:47:16;7.60;;;2.30;;
64282;SDS011;50497;50.720;-2.084;2022-08-19T00:49:48;7.22;;;2.15;;
64282;SDS011;50497;50.720;-2.084;2022-08-19T00:52:24;8.45;;;2.10;;
64282;SDS011;50497;50.720;-2.084;2022-08-19T00:55:01;7.53;;;2.08;;
64282;SDS011;50497;50.720;-2.084;2022-08-19T00:57:35;6.32;;;1.98;;
64282;SDS011;50497;50.720;-2.084;2022-08-19T01:00:10;7.40;;;2.40;;
64282;SDS011;50497;50.720;-2.084;2022-08-19T01:02:40;6.68;;;2.28;;
64282;SDS011;50497;50.720;-2.084;2022-08-19T01:05:08;7.30;;;2.40;;
64282;SDS011;50497;50.720;-2.084;2022-08-19T01:07:38;8.40;;;2.55;;
64282;SDS011;50497;50.720;-2.084;2022-08-19T01:10:10;8.10;;;2.45;;
64282;SDS011;50497;50.720;-2.084;2022-08-19T01:12:38;7.88;;;2.40;;
64282;SDS011;50497;50.720;-2.084;2022-08-19T01:15:12;7.03;;;2.55;;
64282;SDS011;50497;50.720;-2.084;2022-08-19T01:17:41;7.28;;;2.45;;
64282;SDS011;50497;50.720;-2.084;2022-08-19T01:20:12;7.00;;;2.58;;
64282;SDS011;50497;50.720;-2.084;2022-08-19T01:22:46;5.47;;;2.40;;
64282;SDS011;50497;50.720;-2.084;2022-08-19T01:25:20;8.55;;;2.70;;
64282;SDS011;50497;50.720;-2.084;2022-08-19T01:27:54;8.95;;;2.65;;
64282;SDS011;50497;50.720;-2.084;2022-08-19T01:30:22;8.55;;;3.15;;
64282;SDS011;50497;50.720;-2.084;2022-08-19T01:32:50;7.85;;;2.50;;
64282;SDS011;50497;50.720;-2.084;2022-08-19T01:35:17;9.27;;;3.28;;
64282;SDS011;50497;50.720;-2.084;2022-08-19T01:37:45;8.48;;;3.35;;
64282;SDS011;50497;50.720;-2.084;2022-08-19T01:40:23;8.27;;;3.35;;
64282;SDS011;50497;50.720;-2.084;2022-08-19T01:42:51;9.15;;;3.30;;
64282;SDS011;50497;50.720;-2.084;2022-08-19T01:45:19;7.10;;;3.00;;
64282;SDS011;50497;50.720;-2.084;2022-08-19T01:47:49;9.88;;;3.28;;
64282;SDS011;50497;50.720;-2.084;2022-08-19T01:50:26;8.07;;;3.22;;
64282;SDS011;50497;50.720;-2.084;2022-08-19T01:52:56;8.85;;;3.30;;
64282;SDS011;50497;50.720;-2.084;2022-08-19T01:55:24;7.68;;;3.35;;
64282;SDS011;50497;50.720;-2.084;2022-08-19T01:57:52;11.68;;;3.42;;
64282;SDS011;50497;50.720;-2.084;2022-08-19T02:00:26;10.80;;;3.67;;
64282;SDS011;50497;50.720;-2.084;2022-08-19T02:02:59;8.27;;;3.50;;
64282;SDS011;50497;50.720;-2.084;2022-08-19T02:05:26;11.05;;;3.33;;
64282;SDS011;50497;50.720;-2.084;2022-08-19T02:08:02;10.00;;;3.55;;
64282;SDS011;50497;50.720;-2.084;2022-08-19T02:10:28;10.77;;;3.22;;
64282;SDS011;50497;50.720;-2.084;2022-08-19T02:12:58;9.43;;;3.30;;
64282;SDS011;50497;50.720;-2.084;2022-08-19T02:15:24;8.63;;;3.33;;
64282;SDS011;50497;50.720;-2.084;2022-08-19T02:17:50;11.40;;;3.63;;
64282;SDS011;50497;50.720;-2.084;2022-08-19T02:20:19;12.43;;;3.50;;
64282;SDS011;50497;50.720;-2.084;2022-08-19T02:22:45;9.50;;;3.30;;
64282;SDS011;50497;50.720;-2.084;2022-08-19T02:25:14;9.15;;;3.10;;
64282;SDS011;50497;50.720;-2.084;2022-08-19T02:27:42;11.50;;;3.60;;
64282;SDS011;50497;50.720;-2.084;2022-08-19T02:30:13;9.35;;;3.13;;
64282;SDS011;50497;50.720;-2.084;2022-08-19T02:32:41;9.52;;;3.33;;
64282;SDS011;50497;50.720;-2.084;2022-08-19T02:35:11;11.10;;;3.22;;
64282;SDS011;50497;50.720;-2.084;2022-08-19T02:37:43;8.63;;;3.55;;
64282;SDS011;50497;50.720;-2.084;2022-08-19T02:40:31;10.18;;;3.13;;
64282;SDS011;50497;50.720;-2.084;2022-08-19T02:43:09;9.98;;;3.40;;
64282;SDS011;50497;50.720;-2.084;2022-08-19T02:45:36;7.72;;;3.10;;
64282;SDS011;50497;50.720;-2.084;2022-08-19T02:48:05;8.77;;;2.90;;
64282;SDS011;50497;50.720;-2.084;2022-08-19T02:50:31;9.85;;;3.05;;
64282;SDS011;50497;50.720;-2.084;2022-08-19T02:52:57;8.77;;;2.90;;
64282;SDS011;50497;50.720;-2.084;2022-08-19T02:55:23;10.43;;;3.00;;
64282;SDS011;50497;50.720;-2.084;2022-08-19T02:57:48;8.25;;;2.95;;
64282;SDS011;50497;50.720;-2.084;2022-08-19T03:02:44;9.63;;;2.90;;
64282;SDS011;50497;50.720;-2.084;2022-08-19T03:05:11;9.23;;;2.72;;
64282;SDS011;50497;50.720;-2.084;2022-08-19T03:07:38;9.88;;;3.00;;
64282;SDS011;50497;50.720;-2.084;2022-08-19T03:12:29;8.07;;;2.42;;
64282;SDS011;50497;50.720;-2.084;2022-08-19T03:14:55;8.50;;;2.75;;
64282;SDS011;50497;50.720;-2.084;2022-08-19T03:17:25;7.70;;;2.83;;
64282;SDS011;50497;50.720;-2.084;2022-08-19T03:19:55;9.02;;;2.53;;
64282;SDS011;50497;50.720;-2.084;2022-08-19T03:22:25;10.05;;;2.60;;
64282;SDS011;50497;50.720;-2.084;2022-08-19T03:27:17;8.38;;;2.47;;
64282;SDS011;50497;50.720;-2.084;2022-08-19T03:29:51;7.75;;;2.65;;
64282;SDS011;50497;50.720;-2.084;2022-08-19T03:32:27;8.25;;;2.72;;
64282;SDS011;50497;50.720;-2.084;2022-08-19T03:34:55;8.13;;;3.00;;
64282;SDS011;50497;50.720;-2.084;2022-08-19T03:39:56;7.65;;;2.42;;
64282;SDS011;50497;50.720;-2.084;2022-08-19T03:42:22;8.65;;;2.47;;
64282;SDS011;50497;50.720;-2.084;2022-08-19T03:44:51;9.48;;;2.70;;
64282;SDS011;50497;50.720;-2.084;2022-08-19T03:47:19;8.80;;;2.65;;
64282;SDS011;50497;50.720;-2.084;2022-08-19T03:49:48;9.27;;;2.63;;
64282;SDS011;50497;50.720;-2.084;2022-08-19T03:52:24;8.27;;;2.58;;
64282;SDS011;50497;50.720;-2.084;2022-08-19T03:54:49;7.43;;;2.60;;
64282;SDS011;50497;50.720;-2.084;2022-08-19T03:57:15;7.28;;;2.50;;
64282;SDS011;50497;50.720;-2.084;2022-08-19T04:02:09;8.15;;;2.40;;
64282;SDS011;50497;50.720;-2.084;2022-08-19T04:04:40;8.25;;;2.30;;
64282;SDS011;50497;50.720;-2.084;2022-08-19T04:07:13;6.25;;;2.30;;
64282;SDS011;50497;50.720;-2.084;2022-08-19T04:09:46;7.72;;;2.70;;
64282;SDS011;50497;50.720;-2.084;2022-08-19T04:12:12;8.80;;;2.40;;
64282;SDS011;50497;50.720;-2.084;2022-08-19T04:14:38;7.45;;;2.20;;
64282;SDS011;50497;50.720;-2.084;2022-08-19T04:17:07;7.10;;;2.20;;
64282;SDS011;50497;50.720;-2.084;2022-08-19T04:19:34;6.38;;;2.22;;
64282;SDS011;50497;50.720;-2.084;2022-08-19T04:22:05;6.75;;;2.47;;
64282;SDS011;50497;50.720;-2.084;2022-08-19T04:24:33;7.25;;;2.25;;
64282;SDS011;50497;50.720;-2.084;2022-08-19T04:27:00;7.53;;;2.20;;
64282;SDS011;50497;50.720;-2.084;2022-08-19T04:29:32;7.82;;;2.38;;
64282;SDS011;50497;50.720;-2.084;2022-08-19T04:32:16;6.63;;;2.22;;
64282;SDS011;50497;50.720;-2.084;2022-08-19T04:34:42;7.78;;;2.10;;
64282;SDS011;50497;50.720;-2.084;2022-08-19T04:37:08;11.63;;;2.60;;
64282;SDS011;50497;50.720;-2.084;2022-08-19T04:39:38;6.57;;;2.13;;
64282;SDS011;50497;50.720;-2.084;2022-08-19T04:42:22;7.20;;;2.15;;
64282;SDS011;50497;50.720;-2.084;2022-08-19T04:45:08;6.82;;;1.90;;
64282;SDS011;50497;50.720;-2.084;2022-08-19T04:47:37;6.82;;;2.25;;
64282;SDS011;50497;50.720;-2.084;2022-08-19T04:50:12;8.38;;;2.05;;
64282;SDS011;50497;50.720;-2.084;2022-08-19T04:52:41;7.60;;;2.03;;
64282;SDS011;50497;50.720;-2.084;2022-08-19T04:55:11;6.95;;;2.10;;
64282;SDS011;50497;50.720;-2.084;2022-08-19T04:57:40;8.02;;;2.38;;
64282;SDS011;50497;50.720;-2.084;2022-08-19T05:00:09;7.88;;;2.40;;
64282;SDS011;50497;50.720;-2.084;2022-08-19T05:02:35;8.80;;;2.05;;
64282;SDS011;50497;50.720;-2.084;2022-08-19T05:05:02;6.57;;;2.42;;
64282;SDS011;50497;50.720;-2.084;2022-08-19T05:09:58;7.10;;;2.22;;
64282;SDS011;50497;50.720;-2.084;2022-08-19T05:12:24;6.45;;;2.03;;
64282;SDS011;50497;50.720;-2.084;2022-08-19T05:14:50;8.38;;;2.55;;
64282;SDS011;50497;50.720;-2.084;2022-08-19T05:17:17;7.35;;;2.17;;
64282;SDS011;50497;50.720;-2.084;2022-08-19T05:19:46;8.65;;;2.30;;
64282;SDS011;50497;50.720;-2.084;2022-08-19T05:22:30;7.50;;;2.08;;
64282;SDS011;50497;50.720;-2.084;2022-08-19T05:25:10;6.63;;;2.30;;
64282;SDS011;50497;50.720;-2.084;2022-08-19T05:27:39;7.10;;;2.10;;
64282;SDS011;50497;50.720;-2.084;2022-08-19T05:30:11;5.93;;;2.10;;
64282;SDS011;50497;50.720;-2.084;2022-08-19T05:32:40;5.75;;;1.90;;
64282;SDS011;50497;50.720;-2.084;2022-08-19T05:35:10;7.72;;;2.03;;
64282;SDS011;50497;50.720;-2.084;2022-08-19T05:37:43;6.45;;;2.00;;
64282;SDS011;50497;50.720;-2.084;2022-08-19T05:40:12;7.18;;;2.05;;
64282;SDS011;50497;50.720;-2.084;2022-08-19T05:42:45;7.78;;;1.95;;
64282;SDS011;50497;50.720;-2.084;2022-08-19T05:45:14;5.53;;;1.85;;
64282;SDS011;50497;50.720;-2.084;2022-08-19T05:47:40;7.28;;;2.20;;
64282;SDS011;50497;50.720;-2.084;2022-08-19T05:50:05;6.68;;;2.28;;
64282;SDS011;50497;50.720;-2.084;2022-08-19T05:52:31;5.88;;;1.90;;
64282;SDS011;50497;50.720;-2.084;2022-08-19T05:55:06;7.60;;;2.20;;
64282;SDS011;50497;50.720;-2.084;2022-08-19T05:57:39;6.65;;;2.10;;
64282;SDS011;50497;50.720;-2.084;2022-08-19T06:00:11;6.55;;;2.17;;
64282;SDS011;50497;50.720;-2.084;2022-08-19T06:02:43;6.93;;;2.35;;
64282;SDS011;50497;50.720;-2.084;2022-08-19T06:07:42;8.23;;;2.05;;
64282;SDS011;50497;50.720;-2.084;2022-08-19T06:10:09;7.18;;;2.13;;
64282;SDS011;50497;50.720;-2.084;2022-08-19T06:12:39;4.50;;;1.75;;
64282;SDS011;50497;50.720;-2.084;2022-08-19T06:15:12;3.65;;;1.60;;
64282;SDS011;50497;50.720;-2.084;2022-08-19T06:17:42;5.60;;;1.88;;
64282;SDS011;50497;50.720;-2.084;2022-08-19T06:20:16;4.10;;;1.48;;
64282;SDS011;50497;50.720;-2.084;2022-08-19T06:22:49;4.30;;;1.80;;
64282;SDS011;50497;50.720;-2.084;2022-08-19T06:25:26;5.78;;;1.77;;
64282;SDS011;50497;50.720;-2.084;2022-08-19T06:27:53;4.30;;;1.55;;
64282;SDS011;50497;50.720;-2.084;2022-08-19T06:30:22;4.57;;;1.60;;
64282;SDS011;50497;50.720;-2.084;2022-08-19T06:32:51;5.00;;;1.80;;
64282;SDS011;50497;50.720;-2.084;2022-08-19T06:35:20;3.90;;;1.40;;
64282;SDS011;50497;50.720;-2.084;2022-08-19T06:37:50;5.30;;;1.65;;
64282;SDS011;50497;50.720;-2.084;2022-08-19T06:40:19;4.20;;;1.50;;
64282;SDS011;50497;50.720;-2.084;2022-08-19T06:42:51;5.32;;;1.80;;
64282;SDS011;50497;50.720;-2.084;2022-08-19T06:45:27;5.93;;;1.50;;
64282;SDS011;50497;50.720;-2.084;2022-08-19T06:47:57;4.07;;;1.48;;
64282;SDS011;50497;50.720;-2.084;2022-08-19T06:50:23;5.72;;;1.33;;
64282;SDS011;50497;50.720;-2.084;2022-08-19T06:52:49;4.45;;;1.42;;
64282;SDS011;50497;50.720;-2.084;2022-08-19T06:55:15;6.00;;;1.65;;
64282;SDS011;50497;50.720;-2.084;2022-08-19T06:57:40;7.53;;;1.85;;
64282;SDS011;50497;50.720;-2.084;2022-08-19T07:00:07;6.15;;;1.98;;
64282;SDS011;50497;50.720;-2.084;2022-08-19T07:02:41;7.53;;;1.98;;
64282;SDS011;50497;50.720;-2.084;2022-08-19T07:05:12;5.35;;;1.73;;
64282;SDS011;50497;50.720;-2.084;2022-08-19T07:07:43;5.22;;;2.00;;
64282;SDS011;50497;50.720;-2.084;2022-08-19T07:10:09;6.68;;;1.80;;
64282;SDS011;50497;50.720;-2.084;2022-08-19T07:12:34;6.97;;;2.15;;
64282;SDS011;50497;50.720;-2.084;2022-08-19T07:15:07;7.03;;;2.17;;
64282;SDS011;50497;50.720;-2.084;2022-08-19T07:17:36;8.25;;;2.20;;
64282;SDS011;50497;50.720;-2.084;2022-08-19T07:20:06;8.77;;;2.20;;
64282;SDS011;50497;50.720;-2.084;2022-08-19T07:22:35;7.88;;;2.15;;
64282;SDS011;50497;50.720;-2.084;2022-08-19T07:25:02;7.32;;;2.20;;
64282;SDS011;50497;50.720;-2.084;2022-08-19T07:27:37;10.20;;;2.55;;
64282;SDS011;50497;50.720;-2.084;2022-08-19T07:30:03;11.02;;;2.80;;
64282;SDS011;50497;50.720;-2.084;2022-08-19T07:32:34;10.88;;;2.92;;
64282;SDS011;50497;50.720;-2.084;2022-08-19T07:35:02;8.52;;;3.13;;
64282;SDS011;50497;50.720;-2.084;2022-08-19T07:37:28;9.63;;;2.67;;
64282;SDS011;50497;50.720;-2.084;2022-08-19T07:40:00;6.70;;;2.60;;
64282;SDS011;50497;50.720;-2.084;2022-08-19T07:42:32;9.93;;;2.50;;
64282;SDS011;50497;50.720;-2.084;2022-08-19T07:45:02;11.50;;;3.03;;
64282;SDS011;50497;50.720;-2.084;2022-08-19T07:47:29;9.45;;;2.63;;
64282;SDS011;50497;50.720;-2.084;2022-08-19T07:50:02;11.38;;;2.55;;
64282;SDS011;50497;50.720;-2.084;2022-08-19T07:52:30;10.75;;;2.65;;
64282;SDS011;50497;50.720;-2.084;2022-08-19T07:55:02;8.77;;;2.50;;
64282;SDS011;50497;50.720;-2.084;2022-08-19T07:57:29;9.05;;;2.58;;
64282;SDS011;50497;50.720;-2.084;2022-08-19T08:00:03;11.02;;;2.60;;
64282;SDS011;50497;50.720;-2.084;2022-08-19T08:02:33;11.48;;;2.90;;
64282;SDS011;50497;50.720;-2.084;2022-08-19T08:04:59;14.27;;;3.20;;
64282;SDS011;50497;50.720;-2.084;2022-08-19T08:07:44;11.38;;;2.67;;
64282;SDS011;50497;50.720;-2.084;2022-08-19T08:10:28;11.15;;;2.55;;
64282;SDS011;50497;50.720;-2.084;2022-08-19T08:13:01;10.90;;;2.90;;
64282;SDS011;50497;50.720;-2.084;2022-08-19T08:15:35;10.25;;;2.72;;
64282;SDS011;50497;50.720;-2.084;2022-08-19T08:18:04;11.32;;;2.78;;
64282;SDS011;50497;50.720;-2.084;2022-08-19T08:20:36;9.38;;;2.72;;
64282;SDS011;50497;50.720;-2.084;2022-08-19T08:23:03;10.98;;;2.78;;
64282;SDS011;50497;50.720;-2.084;2022-08-19T08:25:50;9.48;;;2.70;;
64282;SDS011;50497;50.720;-2.084;2022-08-19T08:28:18;11.95;;;2.50;;
64282;SDS011;50497;50.720;-2.084;2022-08-19T08:30:51;11.73;;;2.97;;
64282;SDS011;50497;50.720;-2.084;2022-08-19T08:33:25;9.30;;;2.80;;
64282;SDS011;50497;50.720;-2.084;2022-08-19T08:35:53;10.32;;;2.88;;
64282;SDS011;50497;50.720;-2.084;2022-08-19T08:40:45;10.18;;;2.55;;
64282;SDS011;50497;50.720;-2.084;2022-08-19T08:43:31;10.02;;;2.60;;
64282;SDS011;50497;50.720;-2.084;2022-08-19T08:46:06;9.00;;;2.60;;
64282;SDS011;50497;50.720;-2.084;2022-08-19T08:48:57;10.20;;;2.80;;
64282;SDS011;50497;50.720;-2.084;2022-08-19T08:54:47;9.35;;;2.58;;
64282;SDS011;50497;50.720;-2.084;2022-08-19T08:58:06;13.27;;;2.75;;
64282;SDS011;50497;50.720;-2.084;2022-08-19T09:02:52;8.63;;;3.00;;
64282;SDS011;50497;50.720;-2.084;2022-08-19T09:05:24;7.25;;;2.30;;
64282;SDS011;50497;50.720;-2.084;2022-08-19T09:08:02;10.05;;;2.72;;
64282;SDS011;50497;50.720;-2.084;2022-08-19T09:10:51;8.25;;;2.55;;
64282;SDS011;50497;50.720;-2.084;2022-08-19T09:15:58;9.77;;;2.35;;
64282;SDS011;50497;50.720;-2.084;2022-08-19T09:21:27;6.70;;;2.20;;
64282;SDS011;50497;50.720;-2.084;2022-08-19T09:24:03;7.50;;;2.47;;
64282;SDS011;50497;50.720;-2.084;2022-08-19T09:26:31;10.30;;;2.78;;
64282;SDS011;50497;50.720;-2.084;2022-08-19T09:28:57;9.43;;;2.67;;
64282;SDS011;50497;50.720;-2.084;2022-08-19T09:31:26;9.45;;;2.40;;
64282;SDS011;50497;50.720;-2.084;2022-08-19T09:33:54;9.60;;;2.30;;
64282;SDS011;50497;50.720;-2.084;2022-08-19T09:36:25;8.73;;;2.40;;
64282;SDS011;50497;50.720;-2.084;2022-08-19T09:38:58;7.93;;;2.08;;
64282;SDS011;50497;50.720;-2.084;2022-08-19T09:41:27;6.13;;;1.88;;
64282;SDS011;50497;50.720;-2.084;2022-08-19T09:43:58;7.25;;;2.28;;
64282;SDS011;50497;50.720;-2.084;2022-08-19T09:46:26;7.25;;;2.10;;
64282;SDS011;50497;50.720;-2.084;2022-08-19T09:48:57;7.28;;;2.15;;
64282;SDS011;50497;50.720;-2.084;2022-08-19T09:51:25;8.63;;;2.20;;
64282;SDS011;50497;50.720;-2.084;2022-08-19T09:53:58;8.68;;;1.90;;
64282;SDS011;50497;50.720;-2.084;2022-08-19T09:56:28;9.68;;;2.20;;
64282;SDS011;50497;50.720;-2.084;2022-08-19T09:58:59;10.80;;;2.03;;
64282;SDS011;50497;50.720;-2.084;2022-08-19T10:01:27;8.70;;;2.17;;
64282;SDS011;50497;50.720;-2.084;2022-08-19T10:03:57;9.90;;;2.55;;
64282;SDS011;50497;50.720;-2.084;2022-08-19T10:06:30;5.57;;;1.70;;
64282;SDS011;50497;50.720;-2.084;2022-08-19T10:09:00;6.63;;;1.92;;
64282;SDS011;50497;50.720;-2.084;2022-08-19T10:11:29;6.03;;;1.90;;
64282;SDS011;50497;50.720;-2.084;2022-08-19T10:13:58;7.15;;;2.10;;
64282;SDS011;50497;50.720;-2.084;2022-08-19T10:16:31;8.25;;;1.83;;
64282;SDS011;50497;50.720;-2.084;2022-08-19T10:19:04;6.97;;;1.92;;
64282;SDS011;50497;50.720;-2.084;2022-08-19T10:21:30;9.45;;;2.30;;
64282;SDS011;50497;50.720;-2.084;2022-08-19T10:24:00;6.40;;;1.88;;
64282;SDS011;50497;50.720;-2.084;2022-08-19T10:26:35;6.88;;;1.73;;
64282;SDS011;50497;50.720;-2.084;2022-08-19T10:29:03;6.63;;;1.67;;
64282;SDS011;50497;50.720;-2.084;2022-08-19T10:31:34;7.32;;;1.90;;
64282;SDS011;50497;50.720;-2.084;2022-08-19T10:34:02;7.35;;;2.00;;
64282;SDS011;50497;50.720;-2.084;2022-08-19T10:36:30;8.52;;;1.95;;
64282;SDS011;50497;50.720;-2.084;2022-08-19T10:39:09;6.95;;;1.92;;
64282;SDS011;50497;50.720;-2.084;2022-08-19T10:41:37;9.15;;;1.90;;
64282;SDS011;50497;50.720;-2.084;2022-08-19T10:44:08;7.95;;;1.90;;
64282;SDS011;50497;50.720;-2.084;2022-08-19T10:46:37;6.90;;;2.00;;
64282;SDS011;50497;50.720;-2.084;2022-08-19T10:49:07;6.78;;;1.65;;
64282;SDS011;50497;50.720;-2.084;2022-08-19T10:51:37;7.60;;;2.10;;
64282;SDS011;50497;50.720;-2.084;2022-08-19T10:54:22;6.93;;;1.70;;
64282;SDS011;50497;50.720;-2.084;2022-08-19T10:57:12;9.05;;;2.00;;
64282;SDS011;50497;50.720;-2.084;2022-08-19T10:59:39;5.72;;;1.80;;
64282;SDS011;50497;50.720;-2.084;2022-08-19T11:02:05;6.13;;;1.90;;
64282;SDS011;50497;50.720;-2.084;2022-08-19T11:04:35;8.40;;;2.03;;
64282;SDS011;50497;50.720;-2.084;2022-08-19T11:07:10;7.97;;;2.00;;
64282;SDS011;50497;50.720;-2.084;2022-08-19T11:09:40;6.68;;;1.88;;
64282;SDS011;50497;50.720;-2.084;2022-08-19T11:12:07;6.45;;;1.63;;
64282;SDS011;50497;50.720;-2.084;2022-08-19T11:14:37;6.70;;;1.80;;
64282;SDS011;50497;50.720;-2.084;2022-08-19T11:17:07;7.45;;;2.20;;
64282;SDS011;50497;50.720;-2.084;2022-08-19T11:19:32;6.45;;;1.90;;
64282;SDS011;50497;50.720;-2.084;2022-08-19T11:21:59;6.82;;;2.10;;
64282;SDS011;50497;50.720;-2.084;2022-08-19T11:24:26;7.45;;;2.05;;
64282;SDS011;50497;50.720;-2.084;2022-08-19T11:26:54;6.95;;;2.00;;
64282;SDS011;50497;50.720;-2.084;2022-08-19T11:29:28;6.85;;;2.08;;
64282;SDS011;50497;50.720;-2.084;2022-08-19T11:31:59;8.23;;;2.42;;
64282;SDS011;50497;50.720;-2.084;2022-08-19T11:34:32;7.68;;;2.00;;
64282;SDS011;50497;50.720;-2.084;2022-08-19T11:37:02;8.68;;;2.05;;
64282;SDS011;50497;50.720;-2.084;2022-08-19T11:39:33;6.03;;;1.95;;
64282;SDS011;50497;50.720;-2.084;2022-08-19T11:42:00;9.68;;;2.20;;
64282;SDS011;50497;50.720;-2.084;2022-08-19T11:44:47;6.32;;;2.20;;
64282;SDS011;50497;50.720;-2.084;2022-08-19T11:47:13;7.00;;;2.00;;
64282;SDS011;50497;50.720;-2.084;2022-08-19T11:49:45;8.23;;;2.10;;
64282;SDS011;50497;50.720;-2.084;2022-08-19T11:52:12;6.05;;;2.00;;
64282;SDS011;50497;50.720;-2.084;2022-08-19T11:54:38;7.82;;;1.92;;
64282;SDS011;50497;50.720;-2.084;2022-08-19T11:57:04;6.80;;;2.00;;
64282;SDS011;50497;50.720;-2.084;2022-08-19T11:59:34;5.72;;;1.90;;
64282;SDS011;50497;50.720;-2.084;2022-08-19T12:02:02;5.40;;;1.70;;
64282;SDS011;50497;50.720;-2.084;2022-08-19T12:04:27;6.22;;;2.05;;
64282;SDS011;50497;50.720;-2.084;2022-08-19T12:07:01;5.60;;;1.65;;
64282;SDS011;50497;50.720;-2.084;2022-08-19T12:09:27;6.68;;;2.03;;
64282;SDS011;50497;50.720;-2.084;2022-08-19T12:11:52;8.02;;;1.90;;
64282;SDS011;50497;50.720;-2.084;2022-08-19T12:14:28;6.03;;;2.03;;
64282;SDS011;50497;50.720;-2.084;2022-08-19T12:16:56;5.95;;;1.90;;
64282;SDS011;50497;50.720;-2.084;2022-08-19T12:19:22;6.90;;;1.80;;
64282;SDS011;50497;50.720;-2.084;2022-08-19T12:21:57;6.82;;;1.80;;
64282;SDS011;50497;50.720;-2.084;2022-08-19T12:24:25;6.50;;;2.05;;
64282;SDS011;50497;50.720;-2.084;2022-08-19T12:27:01;6.78;;;1.90;;
64282;SDS011;50497;50.720;-2.084;2022-08-19T12:29:31;6.28;;;1.80;;
64282;SDS011;50497;50.720;-2.084;2022-08-19T12:31:58;8.27;;;2.33;;
64282;SDS011;50497;50.720;-2.084;2022-08-19T12:34:28;5.93;;;1.80;;
64282;SDS011;50497;50.720;-2.084;2022-08-19T12:36:58;9.02;;;2.20;;
64282;SDS011;50497;50.720;-2.084;2022-08-19T12:39:26;8.10;;;1.80;;
64282;SDS011;50497;50.720;-2.084;2022-08-19T12:41:56;6.50;;;1.90;;
64282;SDS011;50497;50.720;-2.084;2022-08-19T12:44:23;12.15;;;2.50;;
64282;SDS011;50497;50.720;-2.084;2022-08-19T12:46:54;7.95;;;2.33;;
64282;SDS011;50497;50.720;-2.084;2022-08-19T12:49:21;8.88;;;2.60;;
64282;SDS011;50497;50.720;-2.084;2022-08-19T12:51:47;9.40;;;2.17;;
64282;SDS011;50497;50.720;-2.084;2022-08-19T12:54:13;9.53;;;1.90;;
64282;SDS011;50497;50.720;-2.084;2022-08-19T12:56:39;7.88;;;1.70;;
64282;SDS011;50497;50.720;-2.084;2022-08-19T12:59:07;7.80;;;2.20;;
64282;SDS011;50497;50.720;-2.084;2022-08-19T13:01:33;8.15;;;2.17;;
64282;SDS011;50497;50.720;-2.084;2022-08-19T13:03:59;7.53;;;1.77;;
64282;SDS011;50497;50.720;-2.084;2022-08-19T13:06:25;6.72;;;1.70;;
64282;SDS011;50497;50.720;-2.084;2022-08-19T13:08:51;8.40;;;2.10;;
64282;SDS011;50497;50.720;-2.084;2022-08-19T13:11:22;6.18;;;2.03;;
64282;SDS011;50497;50.720;-2.084;2022-08-19T13:13:52;8.43;;;1.83;;
64282;SDS011;50497;50.720;-2.084;2022-08-19T13:16:22;6.32;;;2.15;;
64282;SDS011;50497;50.720;-2.084;2022-08-19T13:18:56;6.38;;;2.05;;
64282;SDS011;50497;50.720;-2.084;2022-08-19T13:21:24;9.43;;;2.20;;
64282;SDS011;50497;50.720;-2.084;2022-08-19T13:23:58;8.07;;;1.90;;
64282;SDS011;50497;50.720;-2.084;2022-08-19T13:26:28;7.15;;;1.90;;
64282;SDS011;50497;50.720;-2.084;2022-08-19T13:29:00;9.75;;;2.10;;
64282;SDS011;50497;50.720;-2.084;2022-08-19T13:31:44;9.93;;;2.13;;
64282;SDS011;50497;50.720;-2.084;2022-08-19T13:34:32;7.65;;;2.13;;
64282;SDS011;50497;50.720;-2.084;2022-08-19T13:37:00;9.82;;;3.00;;
64282;SDS011;50497;50.720;-2.084;2022-08-19T13:39:30;7.38;;;2.15;;
64282;SDS011;50497;50.720;-2.084;2022-08-19T13:42:04;8.30;;;2.65;;
64282;SDS011;50497;50.720;-2.084;2022-08-19T13:44:31;9.32;;;2.63;;
64282;SDS011;50497;50.720;-2.084;2022-08-19T13:47:02;7.88;;;2.25;;
64282;SDS011;50497;50.720;-2.084;2022-08-19T13:49:41;8.60;;;3.13;;
64282;SDS011;50497;50.720;-2.084;2022-08-19T13:52:07;6.65;;;1.80;;
64282;SDS011;50497;50.720;-2.084;2022-08-19T13:54:33;9.40;;;1.98;;
64282;SDS011;50497;50.720;-2.084;2022-08-19T13:56:59;7.30;;;1.80;;
64282;SDS011;50497;50.720;-2.084;2022-08-19T13:59:29;6.13;;;1.73;;
64282;SDS011;50497;50.720;-2.084;2022-08-19T14:01:59;6.35;;;1.67;;
64282;SDS011;50497;50.720;-2.084;2022-08-19T14:04:27;8.95;;;1.90;;
64282;SDS011;50497;50.720;-2.084;2022-08-19T14:06:54;8.38;;;2.22;;
64282;SDS011;50497;50.720;-2.084;2022-08-19T14:09:20;9.57;;;2.10;;
64282;SDS011;50497;50.720;-2.084;2022-08-19T14:11:45;7.35;;;2.20;;
64282;SDS011;50497;50.720;-2.084;2022-08-19T14:14:12;7.95;;;1.73;;
64282;SDS011;50497;50.720;-2.084;2022-08-19T14:16:42;7.70;;;2.20;;
64282;SDS011;50497;50.720;-2.084;2022-08-19T14:19:08;9.73;;;2.05;;
64282;SDS011;50497;50.720;-2.084;2022-08-19T14:21:33;10.55;;;2.20;;
64282;SDS011;50497;50.720;-2.084;2022-08-19T14:24:04;8.32;;;2.22;;
64282;SDS011;50497;50.720;-2.084;2022-08-19T14:26:30;9.73;;;2.40;;
64282;SDS011;50497;50.720;-2.084;2022-08-19T14:28:57;9.30;;;2.13;;
64282;SDS011;50497;50.720;-2.084;2022-08-19T14:31:30;6.15;;;1.75;;
64282;SDS011;50497;50.720;-2.084;2022-08-19T14:34:02;10.77;;;2.22;;
64282;SDS011;50497;50.720;-2.084;2022-08-19T14:36:31;11.93;;;2.50;;
64282;SDS011;50497;50.720;-2.084;2022-08-19T14:39:03;8.57;;;2.28;;
64282;SDS011;50497;50.720;-2.084;2022-08-19T14:41:32;8.70;;;2.22;;
64282;SDS011;50497;50.720;-2.084;2022-08-19T14:43:58;12.52;;;2.30;;
64282;SDS011;50497;50.720;-2.084;2022-08-19T14:46:28;12.43;;;2.42;;
64282;SDS011;50497;50.720;-2.084;2022-08-19T14:48:54;9.50;;;2.53;;
64282;SDS011;50497;50.720;-2.084;2022-08-19T14:51:24;10.18;;;2.38;;
64282;SDS011;50497;50.720;-2.084;2022-08-19T14:53:55;10.02;;;3.05;;
64282;SDS011;50497;50.720;-2.084;2022-08-19T14:56:26;9.63;;;2.40;;
64282;SDS011;50497;50.720;-2.084;2022-08-19T14:58:58;9.85;;;2.70;;
64282;SDS011;50497;50.720;-2.084;2022-08-19T15:01:28;9.52;;;2.28;;
64282;SDS011;50497;50.720;-2.084;2022-08-19T15:03:59;12.90;;;2.53;;
64282;SDS011;50497;50.720;-2.084;2022-08-19T15:06:25;8.30;;;2.33;;
64282;SDS011;50497;50.720;-2.084;2022-08-19T15:08:52;9.13;;;2.53;;
64282;SDS011;50497;50.720;-2.084;2022-08-19T15:11:19;11.27;;;2.40;;
64282;SDS011;50497;50.720;-2.084;2022-08-19T15:13:47;9.73;;;2.28;;
64282;SDS011;50497;50.720;-2.084;2022-08-19T15:16:16;9.82;;;2.30;;
64282;SDS011;50497;50.720;-2.084;2022-08-19T15:18:43;12.18;;;2.72;;
64282;SDS011;50497;50.720;-2.084;2022-08-19T15:21:11;10.80;;;2.45;;
64282;SDS011;50497;50.720;-2.084;2022-08-19T15:23:42;11.80;;;2.25;;
64282;SDS011;50497;50.720;-2.084;2022-08-19T15:26:18;8.02;;;2.30;;
64282;SDS011;50497;50.720;-2.084;2022-08-19T15:28:49;8.38;;;2.40;;